Startpagina
METAR-TAF:

METAR-TAF

Vliegvelden :

Weno, Micronesië

breedte: 07-28N, lengte: 151-51E, hoogte: 3 m

Actueel weer

Dit bericht is 1 uur en het 7 minuten geleden gemaakt, om 11:52 UTC
Wind 3 kt uit variabele richting
Temperatuur 26°C
Vochtigheid 94%
Druk 1012 hPa
Zicht: 22.5 km
Verspreide wolken op 1300 ft, Cumulonimbus.
Geheel bewolkt op 12000 ft

METAR: PTKK 211152Z VRB03KT 14SM SCT013CB OVC120 26/25 A2988 RMK CB ALQDS SLP120 60042 70158 8/32/ T02560247 10261 20256 52019

Tijdstip: 22:59 (12:59 UTC)

Verwachting

Dit bericht is 1 uur en het 32 minuten geleden gemaakt, om 11:27 UTC
Verwachting geldig van 21 om 12 UTC tot 22 om 12 UTC
Wind 6 kt uit het oostzuidoosten
Zicht: 10 km
Verspreide wolken op 1400 ft
Gebroken wolken op 12000 ft
buien in de omgeving

TAF: PTKK 211127Z 2112/2212 12006KT P6SM VCSH SCT014 BKN120

Waarnemingen en weersverwachtingen van meer dan 4000 vliegvelden (METAR en TAF).

De beschikbare stations zijn de gele en rode punten op de kaart.

Ga met uw muis naar het station om de naam te zien.

Klik dan om waarnemingen en weersverwachtingen te zien.

kaart wijzigen: klik op de groene knoppen met een zwart kruis om in te zoomen, op de groene knop met een streepje om uit te zoomen of op de groene pijlen voor aangrenzende kaarten.


METAR-TAF: